Tuesday, January 15, 2019, 11:29 PM GMT
Back to Local

CYQI, Yarmouth, N. S.

Location: , , Canada Lat: 43.833
Local Time: 11:29 PM GMT (23:29 GMT) Lon: -66.083
Time Zone: GMT Elev: 141 ft

Show me the last for .
Show Decoded

2019-01-15 23:00 METAR CYQI 152300Z 33007KT 15SM OVC020 M02/M06 A3001 RMK SC8 SLP167 =
2019-01-15 22:00 METAR CYQI 152200Z 34012G17KT 15SM OVC020 M02/M06 A2999 RMK SC8 SLP161 =
2019-01-15 21:00 METAR CYQI 152100Z 34008G16KT 15SM BKN018 BKN250 M02/M06 A2997 RMK SC7CI1 CI TR
                 SLP153 =
2019-01-15 20:00 METAR CYQI 152000Z 33013KT 15SM BKN018 BKN250 M02/M06 A2995 RMK SC5CI1 SLP147 =
2019-01-15 19:00 METAR CYQI 151900Z 32014G19KT 15SM FEW020 FEW250 M02/M06 A2993 RMK SC2CI1 CI TR
                 SLP141 =
2019-01-15 18:00 METAR CYQI 151800Z 32017KT 15SM FEW025 BKN050 M02/M07 A2992 RMK CU1SC6 CU TR
                 SLP137 =
2019-01-15 17:00 METAR CYQI 151700Z 34012G17KT 15SM FEW025 BKN046 M02/M08 A2991 RMK CU1SC6 CU TR
                 SLP134 =
2019-01-15 16:00 METAR CYQI 151600Z 33014G20KT 15SM FEW025 M02/M07 A2992 RMK SC1 SC TR SLP136 =
2019-01-15 15:00 METAR CYQI 151500Z 34012KT 15SM FEW025 FEW250 M03/M07 A2993 RMK SC1CI1 SC TR CI
                 TR SLP141 =
2019-01-15 14:00 METAR CYQI 151400Z 35014KT 15SM FEW025 FEW250 M04/M07 A2992 RMK SC1CI1 SC TR CI
                 TR SLP135 =
2019-01-15 13:00 METAR CYQI 151300Z 35009KT 15SM FEW025 FEW250 M05/M08 A2990 RMK SC1CI2 SC TR
                 FROIN SLP130 =
2019-01-15 12:00 METAR CYQI 151200Z 35007KT 15SM FEW100 FEW220 M08/M10 A2989 RMK AC1CI1 AC TR
                 FROIN SLP126 =
2019-01-15 11:00 METAR CYQI 151100Z 36008KT 15SM FEW220 M08/M11 A2988 RMK CS1 CS TR SLP124 =
2019-01-15 10:00 METAR CYQI 151000Z 36006KT 15SM SKC M09/M11 A2989 RMK FROIN SLP125 =
2019-01-15 09:00 METAR CYQI 150900Z 35007KT 15SM SKC M10/M11 A2989 RMK SLP125 =
2019-01-15 08:00 METAR CYQI 150800Z 01008KT 15SM SKC M10/M11 A2989 RMK FROIN SLP127 =
2019-01-15 07:00 METAR CYQI 150700Z 36007KT 15SM SKC M10/M12 A2990 RMK FROIN SLP131 =
2019-01-15 06:00 METAR CYQI 150600Z 01005KT 15SM SKC M10/M12 A2991 RMK FROIN SLP133 =
2019-01-15 05:00 METAR CYQI 150500Z 03004KT 15SM SKC M10/M12 A2991 RMK SLP134 =
2019-01-15 04:00 METAR CYQI 150400Z 05005KT 15SM FEW220 M09/M11 A2994 RMK CS2 SLP142 =
2019-01-15 03:00 METAR CYQI 150300Z 02008KT 15SM FEW220 M09/M11 A2996 RMK CS1 SLP151 =
2019-01-15 02:00 METAR CYQI 150200Z 02008KT 15SM FEW220 M09/M11 A3000 RMK CS2 SLP163 =
2019-01-15 01:00 METAR CYQI 150100Z 02008KT 15SM SCT220 M09/M11 A3002 RMK CS3 SLP170 =
2019-01-15 00:00 METAR CYQI 150000Z 01009KT 15SM OVC240 M08/M11 A3003 RMK CS8 HALO SLP175 =

Support USWX by starting your Amazon purchase here.